createdAt,value
2023-10-21T00:00:05.976Z,1.90
2023-10-21T00:03:12.385Z,1.63
2023-10-21T00:06:09.095Z,2.15
2023-10-21T00:08:43.250Z,2.03
2023-10-21T00:11:30.659Z,2.05
2023-10-21T00:14:24.890Z,1.90
2023-10-21T00:16:53.407Z,1.60
2023-10-21T00:19:20.693Z,1.10
2023-10-21T00:22:14.885Z,1.27
2023-10-21T00:25:02.090Z,1.60
2023-10-21T00:27:35.842Z,1.50
2023-10-21T00:30:23.028Z,1.50
2023-10-21T00:33:17.076Z,1.23
2023-10-21T00:35:47.624Z,1.52
2023-10-21T00:38:15.075Z,1.02
2023-10-21T00:43:56.634Z,1.60
2023-10-21T00:46:31.065Z,1.92
2023-10-21T00:48:58.276Z,1.88
2023-10-21T00:51:27.045Z,1.77
2023-10-21T00:54:15.994Z,1.85
2023-10-21T00:56:43.973Z,1.98
2023-10-21T00:59:21.860Z,1.60
2023-10-21T01:02:08.743Z,1.05
2023-10-21T01:05:02.846Z,1.05
2023-10-21T01:07:50.018Z,1.67
2023-10-21T01:10:44.162Z,1.77
2023-10-21T01:13:31.466Z,1.65
2023-10-21T01:16:20.032Z,1.80
2023-10-21T01:19:07.345Z,1.58
2023-10-21T01:21:40.808Z,1.80
2023-10-21T01:24:08.270Z,2.28
2023-10-21T01:29:49.478Z,1.50
2023-10-21T01:32:22.954Z,2.08
2023-10-21T01:35:16.828Z,2.63
2023-10-21T01:38:10.925Z,1.77
2023-10-21T01:41:04.774Z,1.55
2023-10-21T01:43:51.928Z,1.80
2023-10-21T01:46:45.740Z,2.17
2023-10-21T01:49:12.956Z,1.85
2023-10-21T01:52:06.939Z,2.22
2023-10-21T01:54:54.364Z,1.83
2023-10-21T01:57:48.739Z,1.73
2023-10-21T02:00:49.125Z,1.90
2023-10-21T02:03:42.981Z,1.40
2023-10-21T02:06:36.867Z,1.73
2023-10-21T02:09:24.609Z,1.58
2023-10-21T02:12:17.959Z,1.85
2023-10-21T02:15:05.185Z,1.90
2023-10-21T02:17:39.076Z,1.60
2023-10-21T02:20:26.479Z,2.15
2023-10-21T02:22:59.961Z,1.98
2023-10-21T02:25:47.132Z,1.85
2023-10-21T02:28:40.897Z,1.80
2023-10-21T02:31:42.923Z,2.08
2023-10-21T02:34:43.006Z,1.67
2023-10-21T02:37:30.210Z,1.83
2023-10-21T02:40:23.874Z,2.20
2023-10-21T02:43:11.121Z,1.30
2023-10-21T02:46:05.094Z,1.80
2023-10-21T02:48:52.289Z,1.88
2023-10-21T02:51:45.833Z,1.20
2023-10-21T02:54:39.817Z,1.60
2023-10-21T02:57:33.947Z,2.00
2023-10-21T03:00:21.262Z,1.60
2023-10-21T03:03:23.092Z,1.98
2023-10-21T03:06:10.365Z,2.22
2023-10-21T03:09:05.087Z,1.80
2023-10-21T03:11:32.547Z,1.70
2023-10-21T03:13:59.996Z,2.00
2023-10-21T03:16:33.934Z,2.10
2023-10-21T03:19:21.221Z,1.45
2023-10-21T03:22:14.864Z,2.03
2023-10-21T03:25:02.123Z,1.60
2023-10-21T03:27:55.989Z,2.22
2023-10-21T03:30:23.329Z,1.17
2023-10-21T03:32:50.580Z,1.67
2023-10-21T03:35:24.853Z,1.90
2023-10-21T03:37:52.156Z,2.47
2023-10-21T03:40:45.964Z,2.10
2023-10-21T03:43:33.138Z,1.85
2023-10-21T03:46:29.991Z,2.08
2023-10-21T03:49:17.277Z,1.95
2023-10-21T03:52:10.884Z,1.50
2023-10-21T03:55:04.890Z,2.05
2023-10-21T03:57:52.074Z,1.77
2023-10-21T04:00:46.854Z,2.03
2023-10-21T04:03:41.893Z,2.60
2023-10-21T04:06:38.891Z,2.47
2023-10-21T04:09:06.285Z,2.47
2023-10-21T04:11:59.912Z,2.40
2023-10-21T04:14:47.227Z,2.15
2023-10-21T04:17:40.867Z,2.17
2023-10-21T04:20:28.317Z,2.00
2023-10-21T04:23:21.839Z,2.20
2023-10-21T04:25:55.880Z,2.50
2023-10-21T04:28:24.487Z,2.80
2023-10-21T04:30:58.992Z,2.60
2023-10-21T04:33:26.341Z,2.25
2023-10-21T04:36:20.163Z,2.85
2023-10-21T04:39:07.526Z,2.72
2023-10-21T04:42:01.967Z,3.25
2023-10-21T04:44:55.957Z,2.67
2023-10-21T04:47:43.371Z,2.38
2023-10-21T04:50:37.040Z,2.78
2023-10-21T04:53:04.428Z,3.15
2023-10-21T04:55:37.915Z,2.65
2023-10-21T04:58:25.598Z,2.63
2023-10-21T05:01:19.822Z,2.30
2023-10-21T05:04:14.012Z,2.53
2023-10-21T05:07:07.931Z,2.50
2023-10-21T05:09:55.301Z,3.53
2023-10-21T05:12:48.753Z,2.78
2023-10-21T05:15:36.021Z,2.53
2023-10-21T05:18:30.094Z,2.53
2023-10-21T05:21:17.462Z,2.40
2023-10-21T05:24:10.962Z,2.80
2023-10-21T05:26:58.379Z,2.90
2023-10-21T05:29:51.780Z,2.72
2023-10-21T05:32:39.130Z,2.75
2023-10-21T05:35:34.080Z,3.28
2023-10-21T05:38:21.446Z,3.40
2023-10-21T05:41:14.779Z,3.00
2023-10-21T05:44:09.001Z,3.53
2023-10-21T05:46:36.358Z,2.88
2023-10-21T05:49:03.697Z,3.28
2023-10-21T05:51:38.991Z,2.83
2023-10-21T05:54:06.413Z,3.03
2023-10-21T05:59:27.060Z,2.47
2023-10-21T06:02:21.052Z,3.40
2023-10-21T06:05:14.638Z,3.33
2023-10-21T06:08:11.948Z,2.80
2023-10-21T06:11:05.776Z,2.30
2023-10-21T06:13:59.950Z,3.47
2023-10-21T06:16:47.062Z,2.70
2023-10-21T06:19:40.901Z,2.67
2023-10-21T06:22:28.004Z,2.97
2023-10-21T06:25:21.997Z,2.67
2023-10-21T06:28:09.229Z,2.50
2023-10-21T06:31:10.070Z,2.50
2023-10-21T06:33:57.213Z,2.30
2023-10-21T06:36:51.097Z,2.42
2023-10-21T06:39:38.214Z,2.72
2023-10-21T06:42:12.929Z,2.20
2023-10-21T06:44:46.811Z,1.92
2023-10-21T06:47:41.052Z,1.85
2023-10-21T06:50:08.816Z,2.20
2023-10-21T06:53:03.019Z,1.75
2023-10-21T06:55:50.620Z,1.98
2023-10-21T06:58:45.348Z,1.70
2023-10-21T07:01:39.259Z,1.90
2023-10-21T07:04:33.328Z,2.17
2023-10-21T07:07:28.124Z,1.27
2023-10-21T07:10:15.833Z,1.45
2023-10-21T07:13:09.939Z,1.70
2023-10-21T07:15:57.553Z,1.63
2023-10-21T07:18:51.942Z,1.33
2023-10-21T07:21:21.278Z,1.55
2023-10-21T07:24:15.146Z,1.30
2023-10-21T07:27:03.035Z,1.42
2023-10-21T07:29:57.008Z,1.67
2023-10-21T07:32:44.711Z,1.35
2023-10-21T07:35:38.893Z,1.30
2023-10-21T07:38:26.266Z,1.20
2023-10-21T07:41:20.097Z,1.52
2023-10-21T07:44:07.919Z,1.10
2023-10-21T07:47:01.788Z,1.30
2023-10-21T07:49:56.608Z,1.63
2023-10-21T07:52:24.143Z,1.40
2023-10-21T07:54:51.380Z,0.90
2023-10-21T07:57:44.940Z,1.10
2023-10-21T08:00:32.507Z,1.23
2023-10-21T08:03:26.090Z,1.13
2023-10-21T08:06:19.922Z,1.15
2023-10-21T08:09:14.169Z,1.45
2023-10-21T08:11:41.507Z,1.15
2023-10-21T08:14:35.216Z,1.20
2023-10-21T08:17:22.597Z,1.25
2023-10-21T08:19:57.183Z,1.27
2023-10-21T08:22:44.584Z,1.30
2023-10-21T08:25:37.939Z,1.35
2023-10-21T08:28:31.887Z,1.00
2023-10-21T08:31:19.166Z,1.42
2023-10-21T08:33:53.916Z,1.55
2023-10-21T08:36:22.783Z,1.33
2023-10-21T08:38:51.167Z,1.23
2023-10-21T08:41:24.896Z,1.33
2023-10-21T08:43:58.816Z,1.50
2023-10-21T08:47:00.033Z,1.50
2023-10-21T08:49:27.655Z,1.50
2023-10-21T08:52:22.014Z,1.50
2023-10-21T08:55:09.256Z,1.60
2023-10-21T08:58:03.103Z,1.30
2023-10-21T09:00:50.341Z,1.30
2023-10-21T09:03:31.134Z,1.40
2023-10-21T09:06:36.889Z,1.52
2023-10-21T09:09:24.150Z,1.00
2023-10-21T09:12:29.855Z,1.30
2023-10-21T09:15:18.005Z,1.30
2023-10-21T09:18:00.030Z,1.20
2023-10-21T09:20:28.772Z,0.85
2023-10-21T09:23:11.055Z,0.98
2023-10-21T09:25:47.027Z,1.33
2023-10-21T09:28:28.099Z,0.95
2023-10-21T09:30:59.327Z,1.10
2023-10-21T09:33:56.043Z,1.20
2023-10-21T09:36:43.256Z,1.17
2023-10-21T09:39:37.106Z,1.40
2023-10-21T09:42:31.984Z,1.58
2023-10-21T09:45:19.607Z,1.30
2023-10-21T09:48:22.423Z,1.10
2023-10-21T09:50:57.775Z,1.20
2023-10-21T09:53:52.938Z,1.58
2023-10-21T09:56:40.768Z,1.35
2023-10-21T09:59:35.233Z,1.30
2023-10-21T10:02:22.715Z,1.60
2023-10-21T10:05:04.052Z,1.17
2023-10-21T10:07:51.500Z,1.48
2023-10-21T10:10:26.913Z,1.45
2023-10-21T10:13:09.230Z,1.40
2023-10-21T10:16:03.938Z,1.58
2023-10-21T10:18:51.228Z,1.35
2023-10-21T10:21:45.910Z,1.50
2023-10-21T10:24:33.152Z,1.08
2023-10-21T10:27:34.965Z,1.35
2023-10-21T10:30:22.485Z,1.40
2023-10-21T10:33:20.133Z,1.52
2023-10-21T10:36:09.408Z,1.52
2023-10-21T10:39:11.372Z,1.20
2023-10-21T10:42:04.074Z,1.40
2023-10-21T10:44:57.945Z,1.65
2023-10-21T10:47:45.642Z,1.70
2023-10-21T10:50:39.096Z,1.98
2023-10-21T10:53:36.541Z,2.15
2023-10-21T10:56:29.933Z,1.67
2023-10-21T10:59:20.907Z,2.50
2023-10-21T11:02:27.123Z,2.20
2023-10-21T11:05:23.881Z,2.30
2023-10-21T11:08:17.008Z,2.10
2023-10-21T11:11:05.346Z,2.08
2023-10-21T11:13:59.922Z,2.03
2023-10-21T11:16:27.318Z,2.50
2023-10-21T11:22:18.064Z,2.53
2023-10-21T11:25:05.239Z,2.88
2023-10-21T11:27:58.998Z,2.55
2023-10-21T11:30:46.877Z,2.80
2023-10-21T11:33:41.075Z,3.30
2023-10-21T11:36:28.970Z,2.67
2023-10-21T11:39:23.127Z,2.88
2023-10-21T11:42:11.082Z,2.83
2023-10-21T11:45:05.046Z,3.07
2023-10-21T11:47:52.826Z,3.00
2023-10-21T11:50:47.900Z,3.45
2023-10-21T11:53:35.084Z,2.85
2023-10-21T11:56:28.888Z,3.22
2023-10-21T11:59:28.484Z,2.80
2023-10-21T12:02:20.998Z,3.20
2023-10-21T12:05:04.280Z,3.25
2023-10-21T12:07:56.866Z,2.85
2023-10-21T12:10:24.272Z,3.15
2023-10-21T12:13:36.852Z,3.13
2023-10-21T12:16:22.412Z,2.75
2023-10-21T12:19:02.135Z,2.63
2023-10-21T12:21:47.998Z,2.97
2023-10-21T12:24:41.077Z,2.40
2023-10-21T12:27:27.242Z,2.88
2023-10-21T12:30:21.867Z,3.17
2023-10-21T12:33:08.097Z,2.80
2023-10-21T12:35:44.859Z,2.50
2023-10-21T12:38:12.121Z,2.55
2023-10-21T12:41:05.854Z,2.65
2023-10-21T12:44:00.349Z,2.30
2023-10-21T12:46:53.929Z,2.53
2023-10-21T12:49:41.322Z,2.58
2023-10-21T12:52:34.858Z,2.15
2023-10-21T12:55:22.029Z,1.83
2023-10-21T12:58:15.886Z,1.92
2023-10-21T13:00:45.480Z,2.00
2023-10-21T13:03:47.073Z,1.60
2023-10-21T13:06:40.834Z,2.03
2023-10-21T13:09:34.990Z,1.60
2023-10-21T13:12:22.641Z,1.60
2023-10-21T13:15:17.042Z,1.15
2023-10-21T13:18:04.389Z,1.10
2023-10-21T13:20:59.016Z,0.90
2023-10-21T13:23:27.050Z,1.05
2023-10-21T13:25:54.944Z,1.05
2023-10-21T13:28:49.038Z,1.10
2023-10-21T13:31:43.091Z,1.15
2023-10-21T13:34:30.305Z,0.90
2023-10-21T13:37:23.865Z,0.88
2023-10-21T13:40:18.265Z,0.90
2023-10-21T13:43:16.220Z,1.10
2023-10-21T13:46:03.711Z,1.23
2023-10-21T13:48:58.187Z,0.90
2023-10-21T13:51:45.662Z,1.10
2023-10-21T13:54:40.303Z,0.95
2023-10-21T13:57:27.647Z,0.93
2023-10-21T14:11:05.772Z,0.90
2023-10-21T14:13:52.890Z,1.02
2023-10-21T14:16:42.020Z,1.08
2023-10-21T14:19:09.689Z,1.00
2023-10-21T14:21:37.359Z,1.00
2023-10-21T14:24:12.903Z,0.98
2023-10-21T14:26:40.224Z,0.90
2023-10-21T14:29:33.964Z,0.88
2023-10-21T14:32:21.168Z,1.08
2023-10-21T14:35:14.878Z,0.95
2023-10-21T14:38:02.083Z,0.80
2023-10-21T14:40:56.876Z,1.10
2023-10-21T14:43:44.244Z,0.93
2023-10-21T14:46:38.033Z,0.93
2023-10-21T14:49:25.561Z,1.00
2023-10-21T14:52:19.959Z,0.90
2023-10-21T14:55:07.180Z,0.93
2023-10-21T14:57:41.885Z,0.90
2023-10-21T15:00:29.376Z,0.90
2023-10-21T15:03:23.075Z,0.88
2023-10-21T15:06:11.001Z,0.90
2023-10-21T15:09:10.921Z,1.10
2023-10-21T15:12:05.038Z,0.93
2023-10-21T15:15:00.050Z,0.77
2023-10-21T15:17:47.452Z,1.08
2023-10-21T15:20:41.729Z,0.95
2023-10-21T15:23:23.603Z,0.90
2023-10-21T15:25:57.801Z,0.77
2023-10-21T15:28:25.158Z,1.05
2023-10-21T15:31:01.997Z,0.93
2023-10-21T15:33:49.435Z,0.70
2023-10-21T15:36:24.136Z,0.80
2023-10-21T15:39:11.418Z,0.90
2023-10-21T15:42:05.194Z,1.00
2023-10-21T15:44:52.644Z,1.10
2023-10-21T15:47:47.271Z,1.13
2023-10-21T15:50:34.516Z,0.95
2023-10-21T15:53:28.989Z,1.10
2023-10-21T15:56:16.289Z,1.02
2023-10-21T15:59:10.065Z,0.60
2023-10-21T16:01:57.571Z,0.90
2023-10-21T16:04:52.795Z,1.10
2023-10-21T16:07:56.692Z,1.10
2023-10-21T16:10:58.082Z,0.57
2023-10-21T16:13:48.566Z,1.23
2023-10-21T16:16:23.262Z,0.80
2023-10-21T16:19:10.547Z,0.90
2023-10-21T16:22:04.120Z,1.13
2023-10-21T16:24:51.714Z,1.00
2023-10-21T16:27:45.948Z,0.98
2023-10-21T16:30:35.040Z,0.90
2023-10-21T16:33:22.369Z,0.90
2023-10-21T16:36:15.853Z,0.95
2023-10-21T16:39:03.174Z,0.80
2023-10-21T16:41:57.725Z,1.10
2023-10-21T16:44:45.001Z,1.00
2023-10-21T16:47:39.291Z,0.80
2023-10-21T16:50:27.081Z,1.10
2023-10-21T16:53:20.696Z,1.27
2023-10-21T16:56:08.074Z,0.90
2023-10-21T16:59:01.661Z,1.42
2023-10-21T17:01:56.050Z,1.30
2023-10-21T17:04:43.774Z,1.27
2023-10-21T17:07:37.941Z,1.08
2023-10-21T17:10:31.756Z,1.67
2023-10-21T17:13:28.928Z,1.02
2023-10-21T17:16:16.229Z,1.00
2023-10-21T17:19:09.779Z,1.08
2023-10-21T17:21:57.055Z,1.45
2023-10-21T17:24:51.080Z,1.27
2023-10-21T17:27:41.329Z,1.27
2023-10-21T17:30:36.177Z,1.30
2023-10-21T17:33:26.399Z,1.20
2023-10-21T17:36:25.285Z,1.30
2023-10-21T17:39:12.556Z,1.38
2023-10-21T17:42:07.045Z,1.60
2023-10-21T17:44:55.211Z,1.45
2023-10-21T17:47:48.976Z,1.52
2023-10-21T17:50:36.280Z,1.60
2023-10-21T17:53:29.911Z,1.40
2023-10-21T17:56:17.545Z,1.50
2023-10-21T17:59:10.956Z,1.10
2023-10-21T18:01:58.198Z,1.52
2023-10-21T18:04:51.926Z,1.52
2023-10-21T18:07:45.697Z,1.40
2023-10-21T18:10:45.795Z,1.60
2023-10-21T18:13:39.697Z,1.33
2023-10-21T18:16:27.077Z,1.55
2023-10-21T18:19:21.413Z,1.55
2023-10-21T18:22:08.832Z,1.60
2023-10-21T18:25:02.745Z,1.65
2023-10-21T18:27:49.962Z,1.80
2023-10-21T18:30:44.746Z,1.40
2023-10-21T18:33:31.987Z,1.60
2023-10-21T18:36:25.759Z,1.35
2023-10-21T18:39:13.121Z,1.58
2023-10-21T18:42:06.855Z,1.90
2023-10-21T18:44:54.044Z,1.92
2023-10-21T18:47:48.253Z,1.83
2023-10-21T18:50:35.429Z,2.00
2023-10-21T18:53:31.910Z,1.83
2023-10-21T18:56:18.998Z,2.45
2023-10-21T18:59:12.877Z,2.10
2023-10-21T19:02:00.457Z,1.60
2023-10-21T19:04:55.087Z,1.88
2023-10-21T19:07:42.181Z,1.70
2023-10-21T19:10:42.976Z,1.85
2023-10-21T19:13:36.646Z,1.80
2023-10-21T19:16:32.990Z,1.90
2023-10-21T19:19:21.404Z,1.85
2023-10-21T19:22:14.915Z,1.80
2023-10-21T19:25:08.586Z,2.10
2023-10-21T19:28:02.960Z,2.33
2023-10-21T19:30:50.107Z,2.15
2023-10-21T19:33:44.150Z,2.28
2023-10-21T19:36:31.467Z,2.33
2023-10-21T19:39:26.180Z,2.40
2023-10-21T19:42:13.343Z,2.30
2023-10-21T19:45:06.933Z,2.30
2023-10-21T19:47:54.079Z,2.40
2023-10-21T19:50:47.849Z,2.63
2023-10-21T19:53:35.008Z,2.10
2023-10-21T19:56:28.878Z,2.35
2023-10-21T19:59:15.968Z,2.30
2023-10-21T20:02:09.889Z,2.60
2023-10-21T20:04:56.982Z,2.05
2023-10-21T20:07:51.023Z,2.38
2023-10-21T20:10:44.815Z,2.20
2023-10-21T20:13:45.808Z,2.60
2023-10-21T20:16:39.967Z,2.30
2023-10-21T20:19:27.740Z,2.15
2023-10-21T20:22:21.776Z,2.20
2023-10-21T20:25:09.101Z,2.50
2023-10-21T20:28:09.747Z,2.13
2023-10-21T20:30:57.556Z,2.17
2023-10-21T20:33:51.807Z,2.27
2023-10-21T20:36:39.207Z,2.65
2023-10-21T20:39:32.938Z,2.40
2023-10-21T20:42:20.750Z,2.38
2023-10-21T20:45:14.761Z,2.20
2023-10-21T20:48:02.294Z,2.20
2023-10-21T20:50:55.715Z,1.98
2023-10-21T20:53:49.935Z,1.90
2023-10-21T20:56:40.408Z,1.98
2023-10-21T20:59:34.962Z,2.30
2023-10-21T21:02:22.202Z,2.20
2023-10-21T21:05:16.595Z,2.10
2023-10-21T21:08:04.065Z,2.22
2023-10-21T21:11:04.942Z,2.20
2023-10-21T21:13:52.238Z,2.40
2023-10-21T21:16:46.100Z,2.17
2023-10-21T21:19:33.421Z,2.47
2023-10-21T21:22:26.909Z,2.33
2023-10-21T21:25:14.014Z,2.08
2023-10-21T21:28:07.904Z,2.28
2023-10-21T21:30:55.069Z,2.60
2023-10-21T21:33:49.077Z,2.22
2023-10-21T21:36:36.233Z,2.20
2023-10-21T21:39:30.135Z,2.35
2023-10-21T21:42:17.827Z,2.20
2023-10-21T21:45:11.811Z,2.25
2023-10-21T21:47:59.101Z,2.05
2023-10-21T21:50:52.932Z,2.60
2023-10-21T21:53:40.017Z,2.17
2023-10-21T21:56:33.975Z,2.08
2023-10-21T21:59:22.884Z,2.13
2023-10-21T22:02:16.889Z,2.60
2023-10-21T22:05:04.055Z,2.13
2023-10-21T22:07:58.024Z,2.15
2023-10-21T22:10:51.778Z,1.77
2023-10-21T22:13:47.953Z,2.08
2023-10-21T22:16:41.900Z,2.58
2023-10-21T22:19:29.370Z,2.10
2023-10-21T22:22:22.743Z,2.50
2023-10-21T22:25:09.908Z,2.03
2023-10-21T22:28:03.769Z,2.53
2023-10-21T22:30:50.982Z,1.63
2023-10-21T22:33:45.028Z,2.10
2023-10-21T22:36:32.413Z,2.33
2023-10-21T22:39:25.914Z,1.95
2023-10-21T22:42:13.973Z,2.00
2023-10-21T22:45:07.868Z,2.10
2023-10-21T22:47:55.132Z,1.77
2023-10-21T22:50:49.031Z,1.98
2023-10-21T22:53:36.494Z,2.33
2023-10-21T22:56:29.941Z,2.60
2023-10-21T22:59:17.179Z,2.33
2023-10-21T23:02:10.762Z,2.40
2023-10-21T23:04:58.252Z,2.10
2023-10-21T23:07:52.073Z,2.03
2023-10-21T23:10:45.741Z,1.98
2023-10-21T23:13:39.919Z,1.98
2023-10-21T23:16:07.278Z,2.20
2023-10-21T23:21:48.679Z,1.90
2023-10-21T23:24:42.832Z,2.30
2023-10-21T23:27:30.300Z,2.10
2023-10-21T23:30:23.936Z,2.55
2023-10-21T23:33:11.635Z,2.38
2023-10-21T23:36:05.827Z,2.45
2023-10-21T23:38:53.303Z,2.28
2023-10-21T23:41:47.846Z,2.28
2023-10-21T23:44:35.328Z,2.20
2023-10-21T23:47:28.844Z,2.40
2023-10-21T23:50:16.651Z,2.63
2023-10-21T23:53:10.807Z,2.00
2023-10-21T23:55:58.255Z,2.25
2023-10-21T23:58:51.763Z,2.40
